Time;durP1;ratioP1;P1;durP2;ratioP2;P2;SDS_P1;SDS_P2;PMS_P1;PMS_P2;Temp;Humidity;BMP_temperature;BMP_pressure;BME280_temperature;BME280_humidity;BME280_pressure;Samples;Min_cycle;Max_cycle;Signal;HPM_P1;HPM_P2
2022/03/24 00:02:31;;;;;;;0.50;0.50;;;9.30;99.90;9.80;102908.00;;;;5093599;28;20191;-67
2022/03/24 00:05:05;;;;;;;0.73;0.73;;;9.50;99.90;9.60;102902.00;;;;5076714;28;20213;-68
2022/03/24 00:07:41;;;;;;;0.20;0.20;;;9.40;99.90;9.70;102904.00;;;;5094383;28;20687;-67
2022/03/24 00:10:15;;;;;;;0.20;0.20;;;9.40;99.90;9.80;102884.00;;;;5077645;28;20592;-67
2022/03/24 00:12:50;;;;;;;0.20;0.20;;;9.40;99.90;10.00;102901.00;;;;5094648;28;20601;-68
2022/03/24 00:15:25;;;;;;;0.43;0.43;;;9.50;99.90;10.10;102905.00;;;;5095056;28;20263;-67
2022/03/24 00:18:02;;;;;;;0.47;0.47;;;9.70;99.90;9.60;102897.00;;;;5077180;28;20180;-68
2022/03/24 00:20:38;;;;;;;0.60;0.60;;;9.50;99.90;9.40;102897.00;;;;5094273;28;20189;-68
2022/03/24 00:23:15;;;;;;;0.20;0.20;;;9.40;99.90;9.30;102857.00;;;;5091345;28;20188;-68
2022/03/24 00:25:52;;;;;;;1.37;1.33;;;9.20;99.90;9.50;102880.00;;;;5085168;28;20184;-68
2022/03/24 00:28:31;;;;;;;0.20;0.20;;;9.20;99.90;9.60;102891.00;;;;5109204;28;20184;-68
2022/03/24 00:31:09;;;;;;;2.87;2.60;;;9.20;99.90;9.60;102902.00;;;;5113766;28;20176;-68
2022/03/24 00:33:45;;;;;;;0.20;0.20;;;9.30;99.90;9.60;102833.00;;;;5096843;28;20204;-68
2022/03/24 00:36:20;;;;;;;0.20;0.20;;;9.30;99.90;9.40;102841.00;;;;5114582;28;20172;-67
2022/03/24 00:39:01;;;;;;;1.13;1.13;;;9.20;99.90;9.20;102871.00;;;;5113845;28;20159;-67
2022/03/24 00:41:39;;;;;;;0.20;0.20;;;9.10;99.90;9.10;102852.00;;;;5098410;28;20180;-67
2022/03/24 00:44:13;;;;;;;0.20;0.20;;;8.90;99.90;8.90;102879.00;;;;5096027;28;20176;-68
2022/03/24 00:46:46;;;;;;;0.83;0.83;;;8.90;99.90;8.70;102864.00;;;;5096986;28;20180;-68
2022/03/24 00:49:23;;;;;;;0.20;0.20;;;8.80;99.90;8.90;102862.00;;;;5100898;28;20181;-68
2022/03/24 00:51:59;;;;;;;2.30;2.10;;;8.80;99.90;9.60;102863.00;;;;5046872;28;20952;-68
2022/03/24 00:54:35;;;;;;;0.27;0.27;;;9.00;99.90;9.40;102873.00;;;;5072240;28;20513;-68
2022/03/24 00:57:12;;;;;;;0.30;0.30;;;9.10;99.90;9.30;102862.00;;;;5088280;28;20184;-68
2022/03/24 00:59:49;;;;;;;0.30;0.30;;;9.10;99.90;9.20;102834.00;;;;5093392;28;20168;-68
2022/03/24 01:02:28;;;;;;;1.03;0.93;;;9.10;99.90;9.20;102869.00;;;;5076553;28;20278;-68
2022/03/24 01:05:06;;;;;;;2.97;1.37;;;8.90;99.90;8.90;102855.00;;;;5075453;28;20655;-68
2022/03/24 01:07:44;;;;;;;0.40;0.40;;;8.80;99.90;8.80;102855.00;;;;5076287;28;20172;-68
2022/03/24 01:10:22;;;;;;;0.30;0.30;;;8.70;99.90;8.60;102848.00;;;;5076034;28;20193;-68
2022/03/24 01:13:00;;;;;;;0.70;0.70;;;8.60;99.90;8.70;102836.00;;;;5076423;28;20189;-69
2022/03/24 01:15:34;;;;;;;1.37;1.27;;;8.50;99.90;8.90;102846.00;;;;5075535;28;20180;-68
2022/03/24 01:18:19;;;;;;;0.30;0.30;;;8.80;99.90;8.30;102834.00;;;;5072647;28;20187;-68
2022/03/24 01:21:00;;;;;;;0.70;0.70;;;8.50;99.90;8.70;102837.00;;;;5073337;28;20614;-68
2022/03/24 01:23:37;;;;;;;1.03;1.03;;;8.50;99.90;8.30;102838.00;;;;5071834;28;20176;-68
2022/03/24 01:26:11;;;;;;;0.40;0.40;;;8.40;99.90;8.40;102828.00;;;;5078884;28;20183;-68
2022/03/24 01:28:50;;;;;;;0.50;0.50;;;8.30;99.90;8.50;102838.00;;;;5091955;28;20179;-68
2022/03/24 01:31:26;;;;;;;0.50;0.50;;;8.30;99.90;8.30;102821.00;;;;5092436;28;20204;-67
2022/03/24 01:34:05;;;;;;;0.50;0.50;;;8.30;99.90;8.40;102802.00;;;;5092660;28;20215;-68
2022/03/24 01:36:36;;;;;;;1.83;1.73;;;8.30;99.90;8.50;102816.00;;;;5091171;28;20152;-68
2022/03/24 01:39:11;;;;;;;0.50;0.50;;;8.40;99.90;8.60;102806.00;;;;5073924;28;20210;-68
2022/03/24 01:41:50;;;;;;;2.40;2.20;;;8.40;99.90;9.20;102821.00;;;;5092657;28;20187;-68
2022/03/24 01:44:21;;;;;;;1.13;1.13;;;8.60;99.90;9.00;102820.00;;;;5093057;28;20170;-68
2022/03/24 01:47:05;;;;;;;4.20;4.00;;;8.80;99.90;9.00;102778.00;;;;5074354;28;20180;-68
2022/03/24 01:49:43;;;;;;;4.97;2.83;;;9.00;99.90;9.40;102753.00;;;;5094071;28;20197;-68
2022/03/24 01:52:24;;;;;;;7.23;5.90;;;9.20;99.90;9.00;102819.00;;;;5092544;28;20550;-68
2022/03/24 01:55:00;;;;;;;0.60;0.60;;;9.20;99.90;9.20;102836.00;;;;5090786;28;20180;-68
2022/03/24 01:57:40;;;;;;;0.40;0.40;;;9.20;99.90;8.80;102812.00;;;;5076107;28;20211;-68
2022/03/24 02:00:15;;;;;;;0.67;0.67;;;9.00;99.90;8.40;102810.00;;;;5072466;28;20181;-68
2022/03/24 02:02:58;;;;;;;0.40;0.40;;;8.80;99.90;8.70;102799.00;;;;5072512;28;20177;-68
2022/03/24 02:05:38;;;;;;;5.00;4.73;;;8.60;99.90;8.60;102816.00;;;;5071385;28;20189;-68
2022/03/24 02:08:16;;;;;;;0.60;0.60;;;8.50;99.90;8.30;102796.00;;;;5055608;28;20512;-68
2022/03/24 02:10:52;;;;;;;1.00;1.00;;;8.40;99.90;8.50;102799.00;;;;5070905;28;20991;-67
2022/03/24 02:13:27;;;;;;;0.50;0.50;;;8.40;99.90;8.30;102797.00;;;;5071109;28;20288;-68
2022/03/24 02:16:01;;;;;;;0.60;0.60;;;8.30;99.90;8.40;102787.00;;;;5055508;28;20223;-68
2022/03/24 02:18:40;;;;;;;0.40;0.40;;;8.30;99.90;8.40;102804.00;;;;5072097;28;20169;-67
2022/03/24 02:21:16;;;;;;;0.50;0.50;;;8.30;99.90;8.30;102799.00;;;;5055632;28;20180;-68
2022/03/24 02:23:52;;;;;;;0.50;0.50;;;8.30;99.90;8.20;102789.00;;;;5070806;28;20184;-68
2022/03/24 02:26:28;;;;;;;1.60;1.60;;;8.20;99.90;8.00;102780.00;;;;5071819;28;20184;-68
2022/03/24 02:29:06;;;;;;;0.50;0.50;;;8.20;99.90;8.10;102759.00;;;;5091623;28;20176;-67
2022/03/24 02:31:47;;;;;;;0.50;0.50;;;8.10;99.90;8.20;102786.00;;;;5106888;28;20198;-68
2022/03/24 02:37:25;;;;;;;0.70;0.70;;;8.00;99.90;8.10;102780.00;;;;5106005;28;20255;-67
2022/03/24 02:40:00;;;;;;;2.80;2.63;;;8.00;99.90;7.70;102709.00;;;;5107652;28;20184;-66
2022/03/24 02:42:35;;;;;;;2.70;2.60;;;7.90;99.90;7.80;102778.00;;;;5108625;28;20184;-66
2022/03/24 02:45:16;;;;;;;0.70;0.70;;;7.90;99.90;7.90;102771.00;;;;5091689;28;20188;-67
2022/03/24 02:47:48;;;;;;;0.70;0.70;;;7.90;99.90;7.80;102767.00;;;;5108954;28;20594;-67
2022/03/24 02:50:23;;;;;;;0.50;0.50;;;7.80;99.90;7.90;102763.00;;;;5108205;28;20232;-67
2022/03/24 02:53:03;;;;;;;0.53;0.53;;;7.90;99.90;7.90;102767.00;;;;5106869;28;20207;-67
2022/03/24 02:55:32;;;;;;;3.07;2.97;;;7.80;99.90;7.80;102764.00;;;;5091187;28;20215;-67
2022/03/24 02:58:08;;;;;;;0.80;0.80;;;7.80;99.90;7.70;102763.00;;;;5091442;28;20173;-67
2022/03/24 03:00:47;;;;;;;0.60;0.60;;;7.80;99.90;7.90;102775.00;;;;5090954;28;20184;-67
2022/03/24 03:03:24;;;;;;;0.77;0.77;;;7.80;99.90;7.70;102758.00;;;;5091217;28;20217;-67
2022/03/24 03:06:00;;;;;;;0.60;0.60;;;7.80;99.90;7.60;102762.00;;;;5106852;28;20204;-67
2022/03/24 03:08:37;;;;;;;2.40;2.30;;;7.70;99.90;7.60;102758.00;;;;5091990;28;20639;-68
2022/03/24 03:11:10;;;;;;;0.70;0.70;;;7.60;99.90;7.30;102748.00;;;;5091820;28;20186;-67
2022/03/24 03:13:48;;;;;;;0.60;0.60;;;7.50;99.90;7.60;102756.00;;;;5090619;28;20667;-68
2022/03/24 03:16:25;;;;;;;0.80;0.80;;;7.50;99.90;7.30;102745.00;;;;5108309;28;20256;-68
2022/03/24 03:19:01;;;;;;;3.97;3.87;;;7.50;99.90;7.40;102746.00;;;;5110736;28;20317;-67
2022/03/24 03:21:35;;;;;;;0.97;0.97;;;7.40;99.90;7.50;102758.00;;;;5111612;28;20187;-67
2022/03/24 03:24:12;;;;;;;3.07;2.90;;;7.50;99.90;7.80;102759.00;;;;5111781;28;20179;-68
2022/03/24 03:26:49;;;;;;;0.70;0.70;;;7.60;99.90;7.90;102762.00;;;;5093629;28;20247;-67
2022/03/24 03:29:23;;;;;;;0.70;0.70;;;7.70;99.90;7.00;102769.00;;;;5111862;28;20211;-67
2022/03/24 03:32:02;;;;;;;0.60;0.60;;;7.60;99.90;7.30;102732.00;;;;5112099;28;20215;-67
2022/03/24 03:34:40;;;;;;;2.60;2.50;;;7.50;99.90;7.20;102715.00;;;;5094417;28;20231;-67
2022/03/24 03:37:17;;;;;;;0.70;0.70;;;7.40;99.90;7.10;102746.00;;;;5111162;28;20197;-67
2022/03/24 03:39:53;;;;;;;0.73;0.73;;;7.30;99.90;7.20;102743.00;;;;5111404;28;20636;-67
2022/03/24 03:42:25;;;;;;;1.90;1.80;;;7.30;99.90;6.90;102738.00;;;;5112297;28;20187;-67
2022/03/24 03:45:07;;;;;;;9.47;5.17;;;7.20;99.90;7.20;102742.00;;;;5094983;28;20584;-67
2022/03/24 03:47:43;;;;;;;0.70;0.70;;;7.10;99.90;7.10;102744.00;;;;5095040;28;20175;-67
2022/03/24 03:50:21;;;;;;;0.70;0.70;;;7.20;99.90;6.80;102696.00;;;;5094822;28;20709;-67
2022/03/24 03:53:18;;;;;;;1.10;1.10;;;7.10;99.90;6.90;102744.00;;;;5111821;28;20225;-68
2022/03/24 03:55:54;;;;;;;0.70;0.70;;;7.10;99.90;7.00;102733.00;;;;5094450;28;20521;-68
2022/03/24 03:58:35;;;;;;;0.90;0.90;;;7.10;99.90;6.50;102734.00;;;;5111339;28;20206;-68
2022/03/24 04:01:13;;;;;;;0.60;0.60;;;7.00;99.90;6.90;102688.00;;;;5110859;28;20253;-68
2022/03/24 04:03:46;;;;;;;0.60;0.60;;;6.90;99.90;7.10;102743.00;;;;5111224;28;20182;-66
2022/03/24 04:06:20;;;;;;;0.60;0.60;;;7.10;99.90;7.00;102749.00;;;;5111083;28;20246;-66
2022/03/24 04:08:54;;;;;;;1.30;1.30;;;7.10;99.90;6.80;102751.00;;;;5094160;28;20186;-66
2022/03/24 04:11:33;;;;;;;0.90;0.90;;;7.20;99.90;7.00;102748.00;;;;5094580;28;20670;-65
2022/03/24 04:14:13;;;;;;;0.60;0.60;;;7.10;99.90;6.70;102689.00;;;;5094260;28;20175;-66
2022/03/24 04:16:44;;;;;;;0.60;0.60;;;6.90;99.90;6.70;102740.00;;;;5094258;28;20274;-66
2022/03/24 04:19:23;;;;;;;0.60;0.60;;;6.90;99.90;6.90;102743.00;;;;5076074;28;20187;-66
2022/03/24 04:21:57;;;;;;;0.70;0.70;;;6.90;99.90;6.50;102736.00;;;;5077385;28;20178;-66
2022/03/24 04:24:35;;;;;;;1.07;1.07;;;6.90;99.90;6.70;102735.00;;;;5077523;28;20186;-67
2022/03/24 04:27:12;;;;;;;0.87;0.87;;;6.90;99.90;6.50;102736.00;;;;5077182;28;20578;-67
2022/03/24 04:29:49;;;;;;;0.70;0.70;;;6.80;99.90;6.90;102746.00;;;;5094501;28;20170;-66
2022/03/24 04:32:27;;;;;;;0.60;0.60;;;6.80;99.90;6.90;102732.00;;;;5092350;28;20212;-67
2022/03/24 04:35:06;;;;;;;0.70;0.70;;;6.90;99.90;6.50;102696.00;;;;5093354;28;20630;-67
2022/03/24 04:37:46;;;;;;;0.60;0.60;;;6.90;99.90;6.60;102741.00;;;;5093762;28;20193;-67
2022/03/24 04:40:22;;;;;;;3.57;2.37;;;6.80;99.90;6.20;102730.00;;;;5094446;28;20166;-67
2022/03/24 04:42:54;;;;;;;0.60;0.60;;;6.70;99.90;6.40;102743.00;;;;5077577;28;20204;-67
2022/03/24 04:45:32;;;;;;;0.80;0.80;;;6.70;99.90;6.70;102727.00;;;;5092076;28;20173;-66
2022/03/24 04:48:07;;;;;;;2.20;2.10;;;6.70;99.90;6.50;102723.00;;;;5094153;28;20163;-66
2022/03/24 04:50:41;;;;;;;0.60;0.60;;;6.80;99.90;6.90;102741.00;;;;5093930;28;20279;-66
2022/03/24 04:53:18;;;;;;;0.60;0.60;;;6.90;99.90;6.50;102680.00;;;;5075580;28;20210;-66
2022/03/24 04:55:52;;;;;;;0.60;0.60;;;6.80;99.90;6.20;102732.00;;;;5092432;28;20252;-66
2022/03/24 04:58:29;;;;;;;0.70;0.70;;;6.70;99.90;6.00;102726.00;;;;5075689;28;20217;-66
2022/03/24 05:01:05;;;;;;;0.60;0.60;;;6.60;99.90;6.50;102723.00;;;;5093376;28;20183;-67
2022/03/24 05:03:46;;;;;;;1.47;1.47;;;6.50;99.90;5.90;102726.00;;;;5092523;28;20212;-67
2022/03/24 05:06:17;;;;;;;0.70;0.70;;;6.40;99.90;6.30;102728.00;;;;5091587;28;20203;-67
2022/03/24 05:08:54;;;;;;;0.50;0.50;;;6.40;99.90;6.40;102738.00;;;;5127104;27;20174;-67
2022/03/24 05:11:33;;;;;;;0.50;0.50;;;6.50;99.90;6.20;102731.00;;;;5092819;28;20204;-67
2022/03/24 05:14:10;;;;;;;0.70;0.70;;;6.40;99.90;6.10;102745.00;;;;5091859;28;20214;-67
2022/03/24 05:16:42;;;;;;;0.40;0.40;;;6.40;99.90;6.10;102685.00;;;;5076254;28;20200;-67
2022/03/24 05:19:11;;;;;;;0.50;0.50;;;6.40;99.90;6.40;102749.00;;;;5077350;28;20174;-67
2022/03/24 05:21:41;;;;;;;1.17;1.17;;;6.50;99.90;6.00;102735.00;;;;5074679;28;20572;-67
2022/03/24 05:24:12;;;;;;;0.50;0.50;;;6.40;99.90;6.00;102745.00;;;;5093005;28;20179;-67
2022/03/24 05:26:46;;;;;;;1.50;1.50;;;6.30;99.90;6.00;102688.00;;;;5091507;28;20189;-67
2022/03/24 05:29:18;;;;;;;1.10;1.10;;;6.30;99.90;6.10;102732.00;;;;5084579;28;20729;-67
2022/03/24 05:31:52;;;;;;;0.50;0.50;;;6.30;99.90;6.50;102729.00;;;;5076431;28;20214;-67
2022/03/24 05:34:25;;;;;;;0.80;0.80;;;6.40;99.90;6.20;102745.00;;;;5076254;28;20207;-67
2022/03/24 05:37:02;;;;;;;0.40;0.40;;;6.40;99.90;6.30;102742.00;;;;5075425;28;20528;-67
2022/03/24 05:39:42;;;;;;;0.50;0.50;;;6.40;99.90;6.30;102735.00;;;;5086668;28;20272;-67
2022/03/24 05:42:15;;;;;;;0.50;0.50;;;6.40;99.90;6.30;102717.00;;;;5071418;28;20178;-67
2022/03/24 05:44:52;;;;;;;0.50;0.50;;;6.50;99.90;6.10;102736.00;;;;5056140;28;20197;-67
2022/03/24 05:47:34;;;;;;;0.50;0.50;;;6.40;99.90;6.10;102724.00;;;;5072594;28;20224;-67
2022/03/24 05:50:09;;;;;;;1.23;1.23;;;6.30;99.90;6.40;102750.00;;;;5055988;28;20637;-67
2022/03/24 05:52:49;;;;;;;2.27;2.17;;;6.40;99.90;6.10;102743.00;;;;5055162;28;20670;-67
2022/03/24 05:55:23;;;;;;;0.50;0.50;;;6.50;99.90;6.20;102736.00;;;;5071795;28;20162;-67
2022/03/24 05:57:59;;;;;;;0.60;0.60;;;6.40;99.90;6.20;102687.00;;;;5071743;28;20177;-67
2022/03/24 06:00:36;;;;;;;0.60;0.60;;;6.40;99.90;6.50;102737.00;;;;5092330;28;20176;-68
2022/03/24 06:03:10;;;;;;;0.50;0.50;;;6.60;99.90;6.30;102745.00;;;;5091973;28;20632;-68
2022/03/24 06:05:50;;;;;;;0.60;0.60;;;6.60;99.90;6.20;102703.00;;;;5075396;28;20193;-68
2022/03/24 06:08:29;;;;;;;0.50;0.50;;;6.40;99.90;6.40;102743.00;;;;5061229;28;20183;-68
2022/03/24 06:11:09;;;;;;;0.60;0.60;;;6.60;99.90;6.70;102730.00;;;;5072217;28;20645;-68
2022/03/24 06:13:45;;;;;;;3.53;3.30;;;6.80;99.90;6.50;102745.00;;;;5055326;28;20271;-68
2022/03/24 06:16:22;;;;;;;0.77;0.77;;;6.90;99.90;6.50;102756.00;;;;5071755;28;20832;-68
2022/03/24 06:18:56;;;;;;;2.37;2.17;;;6.90;99.90;7.50;102743.00;;;;5071058;28;20195;-68
2022/03/24 06:21:24;;;;;;;0.60;0.60;;;7.40;99.90;7.50;102756.00;;;;5056167;28;20222;-69
2022/03/24 06:24:04;;;;;;;3.37;3.27;;;7.50;99.90;7.90;102766.00;;;;5064216;28;20183;-68
2022/03/24 06:26:35;;;;;;;0.87;0.87;;;7.80;99.90;8.20;102753.00;;;;5070931;28;20648;-68
2022/03/24 06:29:11;;;;;;;0.70;0.70;;;8.00;99.90;8.60;102758.00;;;;5071647;28;20318;-68
2022/03/24 06:31:52;;;;;;;3.47;3.07;;;8.40;99.90;8.80;102782.00;;;;5063544;28;20223;-68
2022/03/24 06:34:21;;;;;;;0.60;0.60;;;8.70;99.90;9.40;102776.00;;;;5070377;28;20170;-69
2022/03/24 06:36:54;;;;;;;1.70;1.60;;;9.00;99.90;9.50;102790.00;;;;5071637;28;20599;-67
2022/03/24 06:39:28;;;;;;;3.00;2.90;;;9.20;99.90;10.20;102800.00;;;;5055509;28;20544;-68
2022/03/24 06:42:02;;;;;;;1.03;1.03;;;9.60;99.90;10.30;102820.00;;;;5072068;28;20264;-68
2022/03/24 06:44:39;;;;;;;2.40;2.30;;;10.00;99.90;11.10;102832.00;;;;5071104;28;20177;-68
2022/03/24 06:47:20;;;;;;;2.80;2.60;;;10.50;99.90;11.90;102851.00;;;;5072123;28;20554;-68
2022/03/24 06:49:59;;;;;;;1.03;1.03;;;11.10;99.90;12.60;102859.00;;;;5054896;28;20531;-68
2022/03/24 06:52:33;;;;;;;1.43;1.33;;;11.80;99.90;12.80;102875.00;;;;5071713;28;20570;-67
2022/03/24 06:55:08;;;;;;;8.27;2.07;;;12.50;99.90;14.10;102897.00;;;;5073917;28;20204;-67
2022/03/24 06:57:51;;;;;;;0.20;0.20;;;13.20;99.90;15.00;102917.00;;;;5059675;28;20188;-67
2022/03/24 07:00:27;;;;;;;1.33;1.33;;;14.10;99.90;15.70;102932.00;;;;5092217;28;20184;-67
2022/03/24 07:03:12;;;;;;;0.10;0.10;;;14.90;99.90;16.50;102949.00;;;;5058285;28;20704;-67
2022/03/24 07:05:51;;;;;;;1.17;1.17;;;15.60;99.90;17.60;102967.00;;;;5074787;28;20537;-67
2022/03/24 07:08:27;;;;;;;4.27;1.90;;;16.50;99.90;18.20;102981.00;;;;5059290;28;20703;-67
2022/03/24 07:11:04;;;;;;;0.10;0.10;;;17.20;99.90;18.30;102959.00;;;;5077139;28;20156;-67
2022/03/24 07:13:45;;;;;;;0.20;0.20;;;17.60;99.90;19.20;102951.00;;;;5075543;28;20180;-67
2022/03/24 07:16:22;;;;;;;4.10;3.90;;;18.20;99.90;19.50;102884.00;;;;5059189;28;20182;-67
2022/03/24 07:18:59;;;;;;;0.43;0.43;;;18.80;99.90;19.60;102885.00;;;;5074535;28;20177;-67
2022/03/24 07:21:38;;;;;;;0.20;0.20;;;19.00;99.90;19.10;102880.00;;;;5075505;28;20258;-67
2022/03/24 07:24:14;;;;;;;1.35;1.35;;;18.80;99.90;19.50;102895.00;;;;5074891;28;20235;-67
2022/03/24 07:26:46;;;;;;;0.40;0.40;;;18.70;99.90;20.20;102898.00;;;;5074719;28;20185;-67
2022/03/24 07:29:24;;;;;;;0.30;0.30;;;19.20;99.90;19.60;102905.00;;;;5075339;28;20633;-68
2022/03/24 07:31:53;;;;;;;0.20;0.20;;;19.30;99.90;20.40;102895.00;;;;5087154;28;20672;-66
2022/03/24 07:34:28;;;;;;;0.10;0.10;;;19.60;99.90;21.10;102897.00;;;;5094253;28;20188;-66
2022/03/24 07:37:02;;;;;;;0.10;0.10;;;20.10;99.90;21.60;102884.00;;;;5095101;28;20176;-66
2022/03/24 07:39:41;;;;;;;1.20;1.20;;;20.60;99.90;22.10;102886.00;;;;5112323;28;20188;-66
2022/03/24 07:42:22;;;;;;;0.30;0.30;;;21.10;99.90;22.30;102884.00;;;;5078403;28;20558;-66
2022/03/24 07:44:56;;;;;;;2.42;2.33;;;21.40;99.90;22.90;102885.00;;;;5094577;28;20172;-66
2022/03/24 07:47:32;;;;;;;2.28;2.03;;;21.90;99.20;22.30;102883.00;;;;5095573;28;20212;-67
2022/03/24 07:50:09;;;;;;;0.40;0.40;;;21.80;97.80;22.20;102884.00;;;;5095062;28;20176;-67
2022/03/24 07:52:48;;;;;;;1.15;1.15;;;21.70;97.70;22.10;102885.00;;;;5077046;28;20180;-66
2022/03/24 07:55:21;;;;;;;2.60;2.53;;;21.70;97.20;22.60;102887.00;;;;5093523;28;20180;-66
2022/03/24 07:58:00;;;;;;;2.90;2.78;;;21.80;97.10;23.00;102878.00;;;;5094060;28;20180;-66
2022/03/24 08:00:37;;;;;;;3.65;2.00;;;22.00;96.50;23.50;102852.00;;;;5094635;28;20180;-66
2022/03/24 08:03:18;;;;;;;0.80;0.80;;;22.50;94.80;23.40;102887.00;;;;5093404;28;20215;-67
2022/03/24 08:05:53;;;;;;;1.63;1.60;;;22.80;94.20;23.20;102891.00;;;;5094086;28;20275;-67
2022/03/24 08:08:26;;;;;;;4.68;4.38;;;22.70;93.10;22.60;102902.00;;;;5111374;28;20173;-67
2022/03/24 08:10:55;;;;;;;2.70;2.55;;;22.30;92.10;22.10;102899.00;;;;5096007;28;20268;-67
2022/03/24 08:13:26;;;;;;;14.13;9.80;;;22.00;91.90;21.40;102902.00;;;;5093016;28;20193;-67
2022/03/24 08:16:01;;;;;;;0.17;0.17;;;21.40;91.90;20.30;102909.00;;;;5106938;28;20190;-67
2022/03/24 08:18:32;;;;;;;9.23;5.28;;;20.80;91.90;21.00;102901.00;;;;5085426;28;20237;-67
2022/03/24 08:21:01;;;;;;;4.82;4.40;;;20.60;92.20;21.00;102901.00;;;;5094508;28;20181;-67
2022/03/24 08:23:32;;;;;;;0.75;0.75;;;20.50;92.10;21.50;102905.00;;;;5077593;28;20349;-67
2022/03/24 08:26:03;;;;;;;4.43;4.22;;;20.80;92.30;22.10;102905.00;;;;5094553;28;20713;-66
2022/03/24 08:28:34;;;;;;;3.33;3.13;;;21.30;92.60;21.90;102915.00;;;;5094385;28;20177;-67
2022/03/24 08:31:08;;;;;;;6.07;4.03;;;21.40;91.50;20.90;102917.00;;;;5093600;28;20192;-67
2022/03/24 08:33:40;;;;;;;13.93;4.47;;;21.20;91.30;20.80;102916.00;;;;5076407;28;20595;-66
2022/03/24 08:36:14;;;;;;;4.00;3.63;;;20.60;92.00;21.60;102921.00;;;;5083180;28;20545;-66
2022/03/24 08:38:46;;;;;;;2.15;2.05;;;21.00;91.80;22.30;102911.00;;;;5094078;28;20181;-67
2022/03/24 08:41:14;;;;;;;1.63;1.63;;;21.50;91.30;21.60;102916.00;;;;5076333;28;20644;-66
2022/03/24 08:43:42;;;;;;;3.17;2.72;;;21.60;91.10;21.40;102919.00;;;;5077236;28;20188;-67
2022/03/24 08:46:16;;;;;;;14.93;5.47;;;21.20;91.10;20.50;102931.00;;;;5076151;28;20842;-67
2022/03/24 08:48:44;;;;;;;2.97;2.70;;;20.80;90.40;21.30;102911.00;;;;5080373;28;20188;-68
2022/03/24 08:51:17;;;;;;;3.22;2.50;;;20.80;90.80;20.70;102895.00;;;;5076162;28;20213;-67
2022/03/24 08:53:49;;;;;;;2.08;1.98;;;20.50;90.40;20.30;102935.00;;;;5060794;28;20185;-67
2022/03/24 08:56:19;;;;;;;4.13;2.17;;;20.30;90.50;19.70;102904.00;;;;5094186;28;20192;-68
2022/03/24 08:58:46;;;;;;;4.60;3.47;;;19.80;91.10;21.40;102940.00;;;;5076923;28;20272;-67
2022/03/24 09:01:15;;;;;;;53.00;8.65;;;20.40;91.30;22.00;102935.00;;;;5092380;28;20659;-67
2022/03/24 09:03:48;;;;;;;7.22;2.22;;;21.20;90.80;20.70;102941.00;;;;5056887;28;20197;-67
2022/03/24 09:06:19;;;;;;;4.97;4.65;;;21.00;90.40;21.60;102936.00;;;;5061580;28;20173;-67
2022/03/24 09:08:48;;;;;;;2.38;2.28;;;21.10;90.80;20.60;102952.00;;;;5065096;28;20178;-68
2022/03/24 09:11:20;;;;;;;1.58;0.80;;;20.90;90.70;20.60;102954.00;;;;5067705;28;20181;-68
2022/03/24 09:13:52;;;;;;;0.65;0.65;;;20.50;91.40;21.10;102951.00;;;;5081820;28;20538;-67
2022/03/24 09:16:24;;;;;;;6.28;2.67;;;20.60;92.00;20.10;102959.00;;;;5083176;28;20208;-67
2022/03/24 09:18:57;;;;;;;0.20;0.20;;;20.30;91.60;20.10;102947.00;;;;5068176;28;20185;-67
2022/03/24 09:21:27;;;;;;;2.30;2.20;;;20.00;91.30;19.80;102950.00;;;;5068867;28;20196;-67
2022/03/24 09:23:56;;;;;;;6.32;3.95;;;19.70;91.80;18.80;102969.00;;;;5083821;28;20178;-68
2022/03/24 09:26:29;;;;;;;5.03;3.60;;;19.20;92.90;19.20;102958.00;;;;5084058;28;20157;-66
2022/03/24 09:29:01;;;;;;;5.10;4.38;;;19.00;93.00;18.80;102972.00;;;;5071177;28;20212;-65
2022/03/24 09:31:27;;;;;;;4.15;3.85;;;18.90;92.60;19.60;102972.00;;;;5078846;28;20178;-70
2022/03/24 09:34:04;;;;;;;5.70;3.25;;;19.20;93.10;19.90;102969.00;;;;5098823;28;20199;-68
2022/03/24 09:36:32;;;;;;;4.80;4.35;;;19.50;93.40;20.40;102975.00;;;;5100500;28;20183;-68
2022/03/24 09:39:15;;;;;;;6.82;4.47;;;19.90;93.10;19.80;102967.00;;;;5104690;28;20258;-68
2022/03/24 09:41:48;;;;;;;1.17;1.17;;;20.00;92.60;20.90;102968.00;;;;5101293;28;20201;-69
2022/03/24 09:44:25;;;;;;;2.50;1.55;;;20.30;92.70;21.20;102955.00;;;;5100405;28;20267;-68
2022/03/24 09:46:57;;;;;;;3.10;2.95;;;20.80;91.40;20.80;102964.00;;;;5093313;28;20189;-68
2022/03/24 09:49:32;;;;;;;1.02;1.02;;;20.80;91.50;21.30;102956.00;;;;5070479;28;20234;-68
2022/03/24 09:52:07;;;;;;;0.65;0.65;;;21.00;90.40;20.90;102960.00;;;;5093535;28;20179;-69
2022/03/24 09:54:58;;;;;;;9.30;4.97;;;21.00;90.30;21.00;102949.00;;;;5076155;28;20191;-69
2022/03/24 09:57:24;;;;;;;12.07;7.28;;;21.00;88.00;20.00;102958.00;;;;5094426;28;20157;-69
2022/03/24 09:59:56;;;;;;;4.88;2.70;;;20.50;87.90;20.10;102974.00;;;;5075153;28;20241;-69
2022/03/24 10:02:41;;;;;;;5.10;4.43;;;20.30;87.80;19.30;102976.00;;;;5074295;28;20204;-69
2022/03/24 10:05:17;;;;;;;3.38;3.17;;;19.90;88.80;20.40;102963.00;;;;5076951;28;20267;-71
2022/03/24 10:07:55;;;;;;;4.30;3.92;;;20.20;88.10;19.80;102969.00;;;;5075856;28;20234;-71
2022/03/24 10:11:19;;;;;;;3.67;2.20;;;19.90;86.90;19.70;102922.00;;;;5092718;28;20298;-64
2022/03/24 10:14:38;;;;;;;2.30;2.20;;;19.90;85.70;20.50;102955.00;;;;5093219;28;20181;-64
2022/03/24 10:17:31;;;;;;;2.85;2.70;;;20.10;87.20;20.90;102959.00;;;;5031168;28;20275;-65
2022/03/24 10:20:20;;;;;;;6.72;2.08;;;20.70;87.00;20.30;102959.00;;;;5029121;28;20194;-63
2022/03/24 10:33:49;;;;;;;9.70;3.17;;;20.20;88.40;20.60;102959.00;;;;5090073;27;1584524;-64
2022/03/24 10:36:26;;;;;;;5.72;3.28;;;20.40;86.60;21.40;102953.00;;;;5111876;28;20270;-65
2022/03/24 10:39:04;;;;;;;2.47;2.28;;;20.90;85.70;21.40;102949.00;;;;5109686;28;20210;-64
2022/03/24 10:41:47;;;;;;;0.75;0.75;;;21.30;83.20;21.90;102939.00;;;;5110953;28;20190;-64
2022/03/24 10:44:15;;;;;;;2.17;2.00;;;21.40;80.90;22.20;102911.00;;;;5109438;28;20615;-64
2022/03/24 10:46:52;;;;;;;2.17;2.08;;;21.70;79.20;21.70;102940.00;;;;5110851;28;20550;-64
2022/03/24 10:49:53;;;;;;;1.25;1.08;;;21.80;77.60;21.50;102904.00;;;;5109631;28;20176;-64
2022/03/24 10:52:35;;;;;;;3.83;3.63;;;21.50;77.40;21.60;102933.00;;;;5084768;28;20676;-64
2022/03/24 10:55:10;;;;;;;6.65;3.58;;;21.50;77.00;21.40;102932.00;;;;5110595;28;20184;-64
2022/03/24 10:57:44;;;;;;;3.28;2.60;;;21.50;77.10;21.20;102938.00;;;;5109225;28;20156;-64
2022/03/24 11:00:15;;;;;;;3.78;3.55;;;21.50;75.70;21.70;102927.00;;;;5110493;28;20259;-69
2022/03/24 11:02:47;;;;;;;4.20;1.70;;;21.40;78.50;22.10;102935.00;;;;5116710;28;20183;-69
2022/03/24 11:05:17;;;;;;;2.58;2.38;;;21.80;75.20;22.40;102936.00;;;;5129758;28;20183;-69
2022/03/24 11:07:54;;;;;;;0.52;0.52;;;21.90;76.10;22.10;102932.00;;;;5112838;28;20180;-68
2022/03/24 11:10:38;;;;;;;2.75;2.58;;;21.90;74.00;22.50;102933.00;;;;5112396;28;20224;-71
2022/03/24 11:13:05;;;;;;;6.60;4.18;;;22.30;76.60;21.70;102940.00;;;;5130899;27;20730;-71
2022/03/24 11:15:58;;;;;;;4.25;3.85;;;22.00;74.80;21.70;102936.00;;;;5129363;28;20548;-71
2022/03/24 11:18:28;;;;;;;3.53;3.25;;;21.50;74.40;21.90;102934.00;;;;5103863;28;20191;-72
2022/03/24 11:21:31;;;;;;;10.60;2.83;;;21.70;73.70;21.40;102929.00;;;;5128895;28;20184;-72
2022/03/24 11:24:09;;;;;;;2.05;1.95;;;21.60;71.70;22.10;102925.00;;;;5070444;28;20185;-73
2022/03/24 11:26:40;;;;;;;2.53;1.10;;;21.70;72.20;21.40;102931.00;;;;5071063;28;20188;-70
2022/03/24 11:29:14;;;;;;;6.03;4.72;;;21.40;73.50;21.90;102920.00;;;;5108725;28;20192;-71
2022/03/24 11:31:45;;;;;;;4.90;3.33;;;21.60;71.80;21.80;102918.00;;;;5129333;28;20248;-71
2022/03/24 11:34:11;;;;;;;1.92;1.50;;;21.50;72.80;21.70;102914.00;;;;5129110;28;20215;-71
2022/03/24 11:36:45;;;;;;;2.55;1.23;;;21.80;70.30;22.30;102900.00;;;;5112359;28;20187;-71
2022/03/24 11:39:13;;;;;;;2.40;2.22;;;21.90;68.30;22.70;102906.00;;;;5129524;28;20615;-71
2022/03/24 11:42:04;;;;;;;1.20;1.15;;;22.20;68.40;22.00;102910.00;;;;5128932;28;20266;-71
2022/03/24 11:44:48;;;;;;;4.93;3.25;;;22.10;66.70;22.60;102868.00;;;;5116230;28;20168;-72
2022/03/24 11:47:19;;;;;;;3.50;2.25;;;22.30;65.20;22.80;102903.00;;;;5098257;28;20176;-71
2022/03/24 11:50:18;;;;;;;1.23;1.23;;;22.50;66.40;23.60;102896.00;;;;5115136;28;20191;-71